sensor_id;sensor_type;location;lat;lon;timestamp;P1;durP1;ratioP1;P2;durP2;ratioP2
35225;SDS011;21813;49.686;21.766;2023-03-25T00:00:33;12.15;;;8.90;;
35225;SDS011;21813;49.686;21.766;2023-03-25T00:03:18;13.73;;;8.77;;
35225;SDS011;21813;49.686;21.766;2023-03-25T00:05:46;11.02;;;8.93;;
35225;SDS011;21813;49.686;21.766;2023-03-25T00:08:12;11.43;;;9.25;;
35225;SDS011;21813;49.686;21.766;2023-03-25T00:10:38;11.10;;;9.48;;
35225;SDS011;21813;49.686;21.766;2023-03-25T00:13:03;11.48;;;9.30;;
35225;SDS011;21813;49.686;21.766;2023-03-25T00:15:32;14.82;;;9.57;;
35225;SDS011;21813;49.686;21.766;2023-03-25T00:17:59;13.05;;;10.18;;
35225;SDS011;21813;49.686;21.766;2023-03-25T00:20:26;11.27;;;9.23;;
35225;SDS011;21813;49.686;21.766;2023-03-25T00:23:03;13.55;;;10.95;;
35225;SDS011;21813;49.686;21.766;2023-03-25T00:49:34;12.35;;;9.45;;
35225;SDS011;21813;49.686;21.766;2023-03-25T00:52:01;13.45;;;10.57;;
35225;SDS011;21813;49.686;21.766;2023-03-25T00:54:27;12.98;;;9.85;;
35225;SDS011;21813;49.686;21.766;2023-03-25T03:23:05;18.25;;;16.23;;
35225;SDS011;21813;49.686;21.766;2023-03-25T03:25:44;22.70;;;17.67;;
35225;SDS011;21813;49.686;21.766;2023-03-25T04:52:14;23.13;;;18.05;;
35225;SDS011;21813;49.686;21.766;2023-03-25T06:31:58;11.65;;;9.05;;
35225;SDS011;21813;49.686;21.766;2023-03-25T06:38:20;12.63;;;9.60;;
35225;SDS011;21813;49.686;21.766;2023-03-25T06:49:23;13.77;;;10.32;;
35225;SDS011;21813;49.686;21.766;2023-03-25T08:20:13;26.73;;;18.00;;
35225;SDS011;21813;49.686;21.766;2023-03-25T08:22:38;21.00;;;15.48;;
35225;SDS011;21813;49.686;21.766;2023-03-25T08:25:05;19.48;;;15.30;;
35225;SDS011;21813;49.686;21.766;2023-03-25T08:27:31;19.90;;;14.35;;
35225;SDS011;21813;49.686;21.766;2023-03-25T08:29:57;20.00;;;16.55;;
35225;SDS011;21813;49.686;21.766;2023-03-25T08:32:24;24.98;;;16.92;;
35225;SDS011;21813;49.686;21.766;2023-03-25T08:34:51;20.40;;;15.88;;
35225;SDS011;21813;49.686;21.766;2023-03-25T08:37:17;24.00;;;17.20;;
35225;SDS011;21813;49.686;21.766;2023-03-25T08:39:43;25.63;;;17.67;;
35225;SDS011;21813;49.686;21.766;2023-03-25T08:42:10;22.30;;;17.17;;
35225;SDS011;21813;49.686;21.766;2023-03-25T08:50:10;32.05;;;19.60;;
35225;SDS011;21813;49.686;21.766;2023-03-25T08:52:36;26.45;;;20.27;;
35225;SDS011;21813;49.686;21.766;2023-03-25T08:55:03;29.25;;;20.48;;
35225;SDS011;21813;49.686;21.766;2023-03-25T08:57:33;30.08;;;20.65;;
35225;SDS011;21813;49.686;21.766;2023-03-25T09:00:01;27.02;;;18.00;;
35225;SDS011;21813;49.686;21.766;2023-03-25T09:02:29;17.77;;;12.63;;
35225;SDS011;21813;49.686;21.766;2023-03-25T09:05:11;17.23;;;11.80;;
35225;SDS011;21813;49.686;21.766;2023-03-25T09:08:21;21.15;;;14.25;;
35225;SDS011;21813;49.686;21.766;2023-03-25T09:11:23;21.95;;;15.32;;
35225;SDS011;21813;49.686;21.766;2023-03-25T09:13:51;19.55;;;13.93;;
35225;SDS011;21813;49.686;21.766;2023-03-25T09:16:22;16.58;;;11.68;;
35225;SDS011;21813;49.686;21.766;2023-03-25T09:18:48;17.33;;;10.77;;
35225;SDS011;21813;49.686;21.766;2023-03-25T09:21:14;12.65;;;9.77;;
35225;SDS011;21813;49.686;21.766;2023-03-25T09:23:50;12.10;;;8.40;;
35225;SDS011;21813;49.686;21.766;2023-03-25T09:26:20;13.60;;;8.45;;
35225;SDS011;21813;49.686;21.766;2023-03-25T09:36:09;8.55;;;6.38;;
35225;SDS011;21813;49.686;21.766;2023-03-25T09:38:36;11.75;;;6.97;;
35225;SDS011;21813;49.686;21.766;2023-03-25T09:41:15;10.00;;;6.18;;
35225;SDS011;21813;49.686;21.766;2023-03-25T09:44:00;8.93;;;6.40;;
35225;SDS011;21813;49.686;21.766;2023-03-25T09:46:45;11.10;;;6.28;;
35225;SDS011;21813;49.686;21.766;2023-03-25T09:49:36;8.65;;;6.00;;
35225;SDS011;21813;49.686;21.766;2023-03-25T09:55:06;7.47;;;6.05;;
35225;SDS011;21813;49.686;21.766;2023-03-25T10:01:56;13.18;;;6.60;;
35225;SDS011;21813;49.686;21.766;2023-03-25T10:42:25;11.93;;;8.00;;
35225;SDS011;21813;49.686;21.766;2023-03-25T10:48:12;16.63;;;8.75;;
35225;SDS011;21813;49.686;21.766;2023-03-25T10:50:43;15.80;;;9.93;;
35225;SDS011;21813;49.686;21.766;2023-03-25T10:53:22;16.80;;;9.50;;
35225;SDS011;21813;49.686;21.766;2023-03-25T10:56:03;14.43;;;10.43;;
35225;SDS011;21813;49.686;21.766;2023-03-25T10:58:37;14.65;;;10.75;;
35225;SDS011;21813;49.686;21.766;2023-03-25T11:01:13;14.85;;;10.27;;
35225;SDS011;21813;49.686;21.766;2023-03-25T11:24:32;18.67;;;13.02;;
35225;SDS011;21813;49.686;21.766;2023-03-25T11:27:06;25.52;;;14.93;;
35225;SDS011;21813;49.686;21.766;2023-03-25T11:29:35;22.05;;;11.98;;
35225;SDS011;21813;49.686;21.766;2023-03-25T11:44:27;15.77;;;10.15;;
35225;SDS011;21813;49.686;21.766;2023-03-25T11:47:05;15.45;;;11.10;;
35225;SDS011;21813;49.686;21.766;2023-03-25T11:50:22;16.63;;;10.40;;
35225;SDS011;21813;49.686;21.766;2023-03-25T11:53:03;15.82;;;10.88;;
35225;SDS011;21813;49.686;21.766;2023-03-25T13:14:59;11.68;;;6.45;;
35225;SDS011;21813;49.686;21.766;2023-03-25T13:17:54;7.85;;;4.55;;
35225;SDS011;21813;49.686;21.766;2023-03-25T13:20:30;11.10;;;5.40;;
35225;SDS011;21813;49.686;21.766;2023-03-25T13:23:03;7.47;;;4.63;;
35225;SDS011;21813;49.686;21.766;2023-03-25T13:31:50;10.48;;;4.82;;
35225;SDS011;21813;49.686;21.766;2023-03-25T13:34:59;6.50;;;3.50;;
35225;SDS011;21813;49.686;21.766;2023-03-25T15:03:19;9.52;;;4.43;;
35225;SDS011;21813;49.686;21.766;2023-03-25T15:06:30;5.88;;;4.15;;
35225;SDS011;21813;49.686;21.766;2023-03-25T15:12:50;6.10;;;4.78;;
35225;SDS011;21813;49.686;21.766;2023-03-25T15:32:57;4.20;;;2.70;;
35225;SDS011;21813;49.686;21.766;2023-03-25T15:35:59;5.95;;;1.88;;
35225;SDS011;21813;49.686;21.766;2023-03-25T15:58:27;7.20;;;3.90;;
35225;SDS011;21813;49.686;21.766;2023-03-25T16:01:35;5.90;;;3.10;;
35225;SDS011;21813;49.686;21.766;2023-03-25T16:07:05;9.48;;;4.00;;
35225;SDS011;21813;49.686;21.766;2023-03-25T16:09:38;6.18;;;3.63;;
35225;SDS011;21813;49.686;21.766;2023-03-25T16:12:09;8.73;;;3.95;;
35225;SDS011;21813;49.686;21.766;2023-03-25T16:14:41;6.63;;;3.50;;
35225;SDS011;21813;49.686;21.766;2023-03-25T16:17:07;6.10;;;3.35;;
35225;SDS011;21813;49.686;21.766;2023-03-25T16:55:41;8.30;;;6.47;;
35225;SDS011;21813;49.686;21.766;2023-03-25T16:57:59;6.95;;;4.60;;
35225;SDS011;21813;49.686;21.766;2023-03-25T17:00:36;9.15;;;5.13;;
35225;SDS011;21813;49.686;21.766;2023-03-25T17:03:10;9.35;;;5.45;;
35225;SDS011;21813;49.686;21.766;2023-03-25T17:08:32;8.00;;;4.90;;
35225;SDS011;21813;49.686;21.766;2023-03-25T17:10:59;9.50;;;5.15;;
35225;SDS011;21813;49.686;21.766;2023-03-25T17:13:26;10.15;;;6.25;;
35225;SDS011;21813;49.686;21.766;2023-03-25T17:15:56;12.23;;;6.00;;
35225;SDS011;21813;49.686;21.766;2023-03-25T17:18:27;11.18;;;5.97;;
35225;SDS011;21813;49.686;21.766;2023-03-25T17:20:58;10.55;;;6.72;;
35225;SDS011;21813;49.686;21.766;2023-03-25T17:23:35;14.80;;;7.38;;
35225;SDS011;21813;49.686;21.766;2023-03-25T17:36:29;14.57;;;8.00;;
35225;SDS011;21813;49.686;21.766;2023-03-25T17:39:00;12.50;;;7.65;;
35225;SDS011;21813;49.686;21.766;2023-03-25T17:41:29;14.35;;;8.52;;
35225;SDS011;21813;49.686;21.766;2023-03-25T17:44:00;13.68;;;8.75;;
35225;SDS011;21813;49.686;21.766;2023-03-25T17:46:27;17.20;;;9.85;;
35225;SDS011;21813;49.686;21.766;2023-03-25T17:48:55;13.70;;;9.10;;
35225;SDS011;21813;49.686;21.766;2023-03-25T17:51:25;17.45;;;10.35;;
35225;SDS011;21813;49.686;21.766;2023-03-25T17:53:57;19.10;;;12.00;;
35225;SDS011;21813;49.686;21.766;2023-03-25T17:56:24;26.65;;;16.48;;
35225;SDS011;21813;49.686;21.766;2023-03-25T17:58:57;38.55;;;20.42;;
35225;SDS011;21813;49.686;21.766;2023-03-25T18:01:24;33.25;;;18.88;;
35225;SDS011;21813;49.686;21.766;2023-03-25T18:03:52;32.10;;;18.85;;
35225;SDS011;21813;49.686;21.766;2023-03-25T18:06:19;32.10;;;19.42;;
35225;SDS011;21813;49.686;21.766;2023-03-25T18:08:48;30.15;;;17.23;;
35225;SDS011;21813;49.686;21.766;2023-03-25T18:11:17;30.00;;;17.15;;
35225;SDS011;21813;49.686;21.766;2023-03-25T18:13:44;26.27;;;15.80;;
35225;SDS011;21813;49.686;21.766;2023-03-25T18:16:12;28.63;;;15.57;;
35225;SDS011;21813;49.686;21.766;2023-03-25T18:18:42;27.73;;;14.50;;
35225;SDS011;21813;49.686;21.766;2023-03-25T18:23:43;35.13;;;19.15;;
35225;SDS011;21813;49.686;21.766;2023-03-25T18:26:30;41.25;;;20.10;;
35225;SDS011;21813;49.686;21.766;2023-03-25T18:32:14;45.50;;;24.90;;
35225;SDS011;21813;49.686;21.766;2023-03-25T18:34:40;44.55;;;22.27;;
35225;SDS011;21813;49.686;21.766;2023-03-25T18:37:08;33.53;;;20.15;;
35225;SDS011;21813;49.686;21.766;2023-03-25T18:39:35;32.58;;;18.35;;
35225;SDS011;21813;49.686;21.766;2023-03-25T18:42:01;30.58;;;16.88;;
35225;SDS011;21813;49.686;21.766;2023-03-25T18:44:27;32.17;;;17.08;;
35225;SDS011;21813;49.686;21.766;2023-03-25T18:46:55;28.20;;;17.52;;
35225;SDS011;21813;49.686;21.766;2023-03-25T18:49:21;60.72;;;33.80;;
35225;SDS011;21813;49.686;21.766;2023-03-25T18:51:46;65.00;;;36.75;;
35225;SDS011;21813;49.686;21.766;2023-03-25T18:54:12;60.53;;;35.50;;
35225;SDS011;21813;49.686;21.766;2023-03-25T18:56:38;47.67;;;27.17;;
35225;SDS011;21813;49.686;21.766;2023-03-25T19:12:58;40.73;;;24.77;;
35225;SDS011;21813;49.686;21.766;2023-03-25T19:15:26;38.03;;;24.55;;
35225;SDS011;21813;49.686;21.766;2023-03-25T19:17:56;42.05;;;25.00;;
35225;SDS011;21813;49.686;21.766;2023-03-25T19:24:06;40.53;;;23.70;;
35225;SDS011;21813;49.686;21.766;2023-03-25T19:26:35;41.22;;;23.75;;
35225;SDS011;21813;49.686;21.766;2023-03-25T19:29:06;42.53;;;24.17;;
35225;SDS011;21813;49.686;21.766;2023-03-25T19:31:35;44.22;;;25.27;;
35225;SDS011;21813;49.686;21.766;2023-03-25T19:34:10;46.83;;;28.25;;
35225;SDS011;21813;49.686;21.766;2023-03-25T19:36:36;43.75;;;25.30;;
35225;SDS011;21813;49.686;21.766;2023-03-25T19:39:02;41.92;;;25.65;;
35225;SDS011;21813;49.686;21.766;2023-03-25T19:41:30;55.63;;;32.15;;
35225;SDS011;21813;49.686;21.766;2023-03-25T19:43:57;57.97;;;35.72;;
35225;SDS011;21813;49.686;21.766;2023-03-25T19:46:23;51.05;;;30.95;;
35225;SDS011;21813;49.686;21.766;2023-03-25T19:48:49;52.13;;;29.88;;
35225;SDS011;21813;49.686;21.766;2023-03-25T19:51:16;52.45;;;31.13;;
35225;SDS011;21813;49.686;21.766;2023-03-25T19:53:42;53.13;;;30.90;;
35225;SDS011;21813;49.686;21.766;2023-03-25T19:56:08;61.22;;;33.38;;
35225;SDS011;21813;49.686;21.766;2023-03-25T19:58:38;70.00;;;39.35;;
35225;SDS011;21813;49.686;21.766;2023-03-25T20:01:04;61.03;;;39.10;;
35225;SDS011;21813;49.686;21.766;2023-03-25T20:03:31;65.22;;;35.05;;
35225;SDS011;21813;49.686;21.766;2023-03-25T20:05:58;60.58;;;37.20;;
35225;SDS011;21813;49.686;21.766;2023-03-25T20:08:25;65.30;;;40.25;;
35225;SDS011;21813;49.686;21.766;2023-03-25T20:10:51;69.47;;;41.22;;
35225;SDS011;21813;49.686;21.766;2023-03-25T20:13:17;70.82;;;40.95;;
35225;SDS011;21813;49.686;21.766;2023-03-25T20:15:43;77.80;;;43.47;;
35225;SDS011;21813;49.686;21.766;2023-03-25T20:18:12;77.13;;;46.05;;
35225;SDS011;21813;49.686;21.766;2023-03-25T20:25:59;66.40;;;37.35;;
35225;SDS011;21813;49.686;21.766;2023-03-25T20:28:25;66.00;;;37.13;;
35225;SDS011;21813;49.686;21.766;2023-03-25T20:30:51;67.30;;;37.85;;
35225;SDS011;21813;49.686;21.766;2023-03-25T20:33:17;62.58;;;38.00;;
35225;SDS011;21813;49.686;21.766;2023-03-25T20:35:43;61.45;;;36.20;;
35225;SDS011;21813;49.686;21.766;2023-03-25T20:38:09;57.92;;;34.72;;
35225;SDS011;21813;49.686;21.766;2023-03-25T20:40:36;64.63;;;34.05;;
35225;SDS011;21813;49.686;21.766;2023-03-25T20:43:04;60.03;;;32.05;;
35225;SDS011;21813;49.686;21.766;2023-03-25T20:45:30;55.17;;;33.42;;
35225;SDS011;21813;49.686;21.766;2023-03-25T20:47:57;55.13;;;31.45;;
35225;SDS011;21813;49.686;21.766;2023-03-25T20:50:23;58.08;;;32.92;;
35225;SDS011;21813;49.686;21.766;2023-03-25T20:52:50;56.88;;;31.67;;
35225;SDS011;21813;49.686;21.766;2023-03-25T20:55:15;46.67;;;27.13;;
35225;SDS011;21813;49.686;21.766;2023-03-25T20:57:44;45.22;;;25.08;;
35225;SDS011;21813;49.686;21.766;2023-03-25T21:00:10;50.80;;;29.50;;
35225;SDS011;21813;49.686;21.766;2023-03-25T21:02:45;46.28;;;26.52;;
35225;SDS011;21813;49.686;21.766;2023-03-25T21:05:14;50.25;;;26.52;;
35225;SDS011;21813;49.686;21.766;2023-03-25T21:07:40;53.03;;;28.17;;
35225;SDS011;21813;49.686;21.766;2023-03-25T21:10:06;50.05;;;28.27;;
35225;SDS011;21813;49.686;21.766;2023-03-25T21:12:33;62.80;;;33.30;;
35225;SDS011;21813;49.686;21.766;2023-03-25T21:15:01;64.70;;;37.30;;
35225;SDS011;21813;49.686;21.766;2023-03-25T21:17:30;58.65;;;34.97;;
35225;SDS011;21813;49.686;21.766;2023-03-25T21:19:56;69.82;;;40.50;;
35225;SDS011;21813;49.686;21.766;2023-03-25T21:22:22;69.50;;;42.45;;
35225;SDS011;21813;49.686;21.766;2023-03-25T21:24:48;94.20;;;56.50;;
35225;SDS011;21813;49.686;21.766;2023-03-25T21:27:16;108.65;;;63.42;;
35225;SDS011;21813;49.686;21.766;2023-03-25T21:30:03;101.25;;;57.17;;
35225;SDS011;21813;49.686;21.766;2023-03-25T21:32:31;90.50;;;53.58;;
35225;SDS011;21813;49.686;21.766;2023-03-25T21:34:57;90.53;;;54.28;;
35225;SDS011;21813;49.686;21.766;2023-03-25T21:37:24;90.40;;;52.22;;
35225;SDS011;21813;49.686;21.766;2023-03-25T21:39:51;87.72;;;50.53;;
35225;SDS011;21813;49.686;21.766;2023-03-25T21:42:42;89.97;;;50.53;;
35225;SDS011;21813;49.686;21.766;2023-03-25T21:45:37;82.85;;;47.85;;
35225;SDS011;21813;49.686;21.766;2023-03-25T21:48:47;79.25;;;46.05;;
35225;SDS011;21813;49.686;21.766;2023-03-25T22:20:52;74.90;;;40.60;;
35225;SDS011;21813;49.686;21.766;2023-03-25T22:26:59;69.32;;;39.10;;
35225;SDS011;21813;49.686;21.766;2023-03-25T22:29:25;60.08;;;37.92;;
35225;SDS011;21813;49.686;21.766;2023-03-25T22:31:52;69.57;;;36.70;;
35225;SDS011;21813;49.686;21.766;2023-03-25T22:34:22;69.53;;;41.05;;
35225;SDS011;21813;49.686;21.766;2023-03-25T22:36:54;72.35;;;42.20;;
35225;SDS011;21813;49.686;21.766;2023-03-25T22:39:27;68.03;;;40.75;;
35225;SDS011;21813;49.686;21.766;2023-03-25T22:42:23;70.90;;;39.60;;
35225;SDS011;21813;49.686;21.766;2023-03-25T22:45:43;68.25;;;42.03;;
35225;SDS011;21813;49.686;21.766;2023-03-25T22:51:54;63.05;;;36.95;;
35225;SDS011;21813;49.686;21.766;2023-03-25T22:57:37;62.97;;;38.17;;
35225;SDS011;21813;49.686;21.766;2023-03-25T23:00:08;63.45;;;37.88;;
35225;SDS011;21813;49.686;21.766;2023-03-25T23:05:41;66.90;;;37.58;;
35225;SDS011;21813;49.686;21.766;2023-03-25T23:08:21;63.78;;;40.03;;
35225;SDS011;21813;49.686;21.766;2023-03-25T23:28:09;45.28;;;25.58;;
35225;SDS011;21813;49.686;21.766;2023-03-25T23:41:45;46.78;;;26.08;;
35225;SDS011;21813;49.686;21.766;2023-03-25T23:44:12;39.75;;;22.42;;
35225;SDS011;21813;49.686;21.766;2023-03-25T23:46:37;45.40;;;25.55;;
